createdAt,value
2022-12-31T00:00:50.207Z,11.67
2022-12-31T00:03:16.751Z,11.70
2022-12-31T00:05:43.390Z,11.65
2022-12-31T00:08:09.787Z,11.68
2022-12-31T00:10:36.275Z,11.68
2022-12-31T00:13:02.674Z,11.70
2022-12-31T00:15:29.117Z,11.70
2022-12-31T00:17:55.562Z,11.60
2022-12-31T00:20:22.060Z,11.53
2022-12-31T00:22:48.448Z,11.54
2022-12-31T00:25:14.872Z,11.55
2022-12-31T00:27:41.342Z,11.44
2022-12-31T00:30:07.933Z,11.28
2022-12-31T00:32:34.291Z,11.20
2022-12-31T00:35:00.839Z,10.89
2022-12-31T00:37:27.326Z,11.05
2022-12-31T00:39:53.784Z,11.10
2022-12-31T00:42:20.313Z,11.16
2022-12-31T00:44:46.817Z,11.00
2022-12-31T00:47:13.650Z,11.00
2022-12-31T00:49:40.089Z,11.15
2022-12-31T00:52:06.491Z,11.25
2022-12-31T00:54:32.874Z,11.28
2022-12-31T00:56:59.371Z,11.26
2022-12-31T00:59:25.804Z,11.29
2022-12-31T01:01:52.354Z,11.27
2022-12-31T01:04:18.899Z,11.31
2022-12-31T01:06:45.359Z,11.09
2022-12-31T01:09:12.046Z,10.95
2022-12-31T01:11:41.205Z,11.02
2022-12-31T01:14:07.633Z,11.06
2022-12-31T01:16:38.281Z,10.90
2022-12-31T01:19:07.732Z,10.53
2022-12-31T01:21:35.439Z,10.70
2022-12-31T01:24:01.914Z,10.81
2022-12-31T01:26:30.663Z,10.68
2022-12-31T01:28:57.039Z,10.54
2022-12-31T01:31:24.491Z,10.66
2022-12-31T01:33:51.305Z,10.85
2022-12-31T01:36:26.104Z,10.98
2022-12-31T01:39:00.421Z,10.97
2022-12-31T01:41:26.896Z,10.93
2022-12-31T01:43:53.393Z,11.10
2022-12-31T01:46:19.866Z,11.16
2022-12-31T01:48:46.282Z,11.11
2022-12-31T01:51:12.614Z,11.27
2022-12-31T01:53:41.036Z,11.33
2022-12-31T01:56:07.457Z,11.31
2022-12-31T02:01:19.967Z,11.31
2022-12-31T02:03:47.417Z,11.38
2022-12-31T02:06:13.895Z,11.42
2022-12-31T02:08:42.314Z,11.41
2022-12-31T02:11:08.972Z,11.48
2022-12-31T02:13:35.409Z,11.41
2022-12-31T02:16:01.838Z,11.44
2022-12-31T02:18:28.438Z,11.38
2022-12-31T02:20:54.807Z,11.43
2022-12-31T02:23:21.348Z,11.42
2022-12-31T02:25:47.741Z,11.49
2022-12-31T02:28:14.207Z,11.53
2022-12-31T02:30:40.580Z,11.59
2022-12-31T02:33:07.053Z,11.57
2022-12-31T02:35:33.515Z,11.57
2022-12-31T02:37:59.906Z,11.58
2022-12-31T02:40:26.347Z,11.61
2022-12-31T02:42:55.629Z,11.63
2022-12-31T02:45:22.278Z,11.52
2022-12-31T02:47:48.754Z,11.18
2022-12-31T02:50:15.127Z,11.02
2022-12-31T02:52:41.571Z,11.00
2022-12-31T02:55:17.868Z,11.16
2022-12-31T02:57:44.308Z,10.97
2022-12-31T03:00:10.740Z,11.12
2022-12-31T03:02:37.171Z,11.34
2022-12-31T03:05:03.596Z,11.38
2022-12-31T03:07:29.983Z,11.45
2022-12-31T03:09:56.393Z,11.46
2022-12-31T03:12:22.859Z,11.54
2022-12-31T03:14:49.285Z,11.37
2022-12-31T03:17:15.773Z,11.32
2022-12-31T03:19:42.251Z,11.28
2022-12-31T03:22:08.718Z,11.33
2022-12-31T03:24:36.472Z,11.02
2022-12-31T03:27:02.942Z,11.04
2022-12-31T03:29:29.335Z,11.31
2022-12-31T03:31:55.718Z,11.27
2022-12-31T03:34:22.094Z,11.40
2022-12-31T03:36:48.526Z,11.41
2022-12-31T03:39:14.979Z,11.42
2022-12-31T03:41:41.419Z,11.47
2022-12-31T03:44:07.819Z,11.52
2022-12-31T03:46:34.230Z,11.56
2022-12-31T03:49:00.635Z,11.60
2022-12-31T03:51:27.029Z,11.49
2022-12-31T03:53:53.431Z,11.50
2022-12-31T03:56:19.845Z,11.57
2022-12-31T03:58:48.962Z,11.61
2022-12-31T04:01:15.516Z,11.62
2022-12-31T04:03:41.985Z,11.61
2022-12-31T04:06:08.347Z,11.65
2022-12-31T04:08:34.821Z,11.58
2022-12-31T04:11:01.199Z,11.53
2022-12-31T04:13:27.620Z,11.60
2022-12-31T04:15:54.043Z,11.62
2022-12-31T04:18:20.460Z,11.66
2022-12-31T04:20:46.882Z,11.66
2022-12-31T04:23:13.308Z,11.61
2022-12-31T04:25:39.713Z,11.65
2022-12-31T04:28:06.131Z,11.65
2022-12-31T04:30:32.495Z,11.57
2022-12-31T04:32:58.895Z,11.57
2022-12-31T04:35:25.308Z,11.62
2022-12-31T04:37:51.771Z,11.55
2022-12-31T04:40:18.253Z,11.48
2022-12-31T04:42:44.650Z,11.53
2022-12-31T04:45:11.106Z,11.56
2022-12-31T04:47:37.497Z,11.58
2022-12-31T04:50:06.897Z,11.56
2022-12-31T04:52:38.589Z,11.57
2022-12-31T04:57:59.232Z,11.56
2022-12-31T05:00:25.709Z,11.57
2022-12-31T05:02:52.122Z,11.61
2022-12-31T05:05:18.639Z,11.62
2022-12-31T05:07:45.066Z,11.59
2022-12-31T05:10:11.484Z,11.57
2022-12-31T05:12:37.890Z,11.59
2022-12-31T05:15:04.373Z,11.58
2022-12-31T05:17:30.847Z,11.57
2022-12-31T05:19:57.235Z,11.60
2022-12-31T05:22:41.842Z,11.57
2022-12-31T05:25:08.268Z,11.55
2022-12-31T05:27:37.913Z,11.56
2022-12-31T05:30:04.345Z,11.56
2022-12-31T05:32:30.716Z,11.56
2022-12-31T05:34:57.105Z,11.60
2022-12-31T05:37:23.592Z,11.58
2022-12-31T05:39:49.981Z,11.56
2022-12-31T05:42:16.401Z,11.57
2022-12-31T05:44:42.869Z,11.57
2022-12-31T05:47:09.274Z,11.62
2022-12-31T05:49:35.719Z,11.64
2022-12-31T05:52:02.128Z,11.66
2022-12-31T05:54:28.554Z,11.58
2022-12-31T05:56:55.024Z,11.54
2022-12-31T05:59:21.514Z,11.64
2022-12-31T06:01:49.403Z,11.64
2022-12-31T06:04:15.839Z,11.55
2022-12-31T06:06:44.163Z,11.62
2022-12-31T06:09:10.631Z,11.60
2022-12-31T06:11:37.039Z,11.66
2022-12-31T06:14:03.401Z,11.67
2022-12-31T06:16:29.872Z,11.68
2022-12-31T06:18:56.251Z,11.67
2022-12-31T06:21:22.751Z,11.68
2022-12-31T06:23:49.183Z,11.71
2022-12-31T06:26:15.667Z,11.66
2022-12-31T06:28:42.120Z,11.64
2022-12-31T06:31:08.592Z,11.60
2022-12-31T06:33:35.009Z,11.64
2022-12-31T06:36:01.444Z,11.66
2022-12-31T06:38:27.860Z,11.69
2022-12-31T06:40:55.250Z,11.65
2022-12-31T06:43:21.734Z,11.66
2022-12-31T06:45:48.275Z,11.59
2022-12-31T06:48:14.707Z,11.59
2022-12-31T06:50:41.175Z,11.53
2022-12-31T06:53:07.602Z,11.46
2022-12-31T06:55:34.033Z,11.44
2022-12-31T06:58:00.476Z,11.37
2022-12-31T07:00:26.956Z,11.34
2022-12-31T07:02:53.524Z,11.36
2022-12-31T07:05:19.967Z,11.32
2022-12-31T07:07:46.368Z,11.37
2022-12-31T07:10:12.817Z,11.34
2022-12-31T07:12:39.282Z,11.41
2022-12-31T07:15:05.689Z,11.40
2022-12-31T07:17:32.034Z,11.44
2022-12-31T07:19:58.559Z,11.49
2022-12-31T07:22:25.017Z,11.40
2022-12-31T07:24:51.514Z,11.46
2022-12-31T07:27:18.006Z,11.48
2022-12-31T07:29:44.402Z,11.48
2022-12-31T07:32:10.807Z,11.56
2022-12-31T07:34:37.234Z,11.50
2022-12-31T07:37:24.168Z,11.58
2022-12-31T07:39:50.511Z,11.61
2022-12-31T07:42:17.943Z,11.60
2022-12-31T07:44:44.314Z,11.67
2022-12-31T07:47:10.843Z,11.77
2022-12-31T07:49:37.353Z,11.77
2022-12-31T07:52:03.690Z,11.92
2022-12-31T07:54:30.045Z,11.96
2022-12-31T07:56:56.413Z,11.91
2022-12-31T07:59:24.558Z,11.91
2022-12-31T08:01:51.314Z,11.89
2022-12-31T08:04:17.818Z,11.94
2022-12-31T08:06:44.157Z,11.98
2022-12-31T08:09:10.482Z,11.98
2022-12-31T08:11:37.021Z,11.93
2022-12-31T08:14:03.366Z,11.99
2022-12-31T08:16:29.723Z,12.00
2022-12-31T08:18:56.111Z,11.75
2022-12-31T08:21:29.533Z,11.74
2022-12-31T08:23:59.213Z,11.94
2022-12-31T08:26:25.534Z,12.07
2022-12-31T08:28:51.975Z,12.05
2022-12-31T08:31:20.813Z,12.06
2022-12-31T08:33:51.707Z,12.06
2022-12-31T08:36:18.064Z,11.99
2022-12-31T08:38:44.409Z,11.99
2022-12-31T08:41:10.768Z,11.99
2022-12-31T08:43:42.387Z,11.95
2022-12-31T08:46:08.757Z,11.96
2022-12-31T08:48:35.151Z,11.85
2022-12-31T08:51:01.678Z,11.95
2022-12-31T08:53:28.124Z,12.03
2022-12-31T08:55:54.571Z,12.09
2022-12-31T08:58:21.040Z,12.09
2022-12-31T09:00:47.512Z,12.02
2022-12-31T09:03:13.994Z,12.10
2022-12-31T09:05:40.461Z,12.10
2022-12-31T09:08:06.977Z,12.20
2022-12-31T09:10:38.160Z,12.27
2022-12-31T09:13:04.737Z,12.28
2022-12-31T09:15:31.190Z,12.25
2022-12-31T09:17:57.719Z,12.27
2022-12-31T09:20:24.131Z,12.16
2022-12-31T09:22:50.611Z,12.16
2022-12-31T09:25:17.107Z,12.21
2022-12-31T09:27:51.185Z,12.24
2022-12-31T09:30:20.511Z,12.19
2022-12-31T09:32:47.032Z,12.20
2022-12-31T09:35:13.556Z,12.34
2022-12-31T09:37:41.274Z,12.29
2022-12-31T09:40:08.725Z,12.40
2022-12-31T09:45:19.460Z,12.67
2022-12-31T09:47:45.918Z,12.72
2022-12-31T09:50:14.364Z,12.83
2022-12-31T09:52:40.724Z,12.91
2022-12-31T09:55:07.236Z,12.98
2022-12-31T09:57:33.690Z,13.02
2022-12-31T10:00:00.537Z,13.06
2022-12-31T10:02:31.754Z,13.12
2022-12-31T10:04:59.358Z,13.18
2022-12-31T10:07:25.883Z,13.22
2022-12-31T10:12:43.159Z,13.25
2022-12-31T10:15:09.647Z,13.30
2022-12-31T10:17:36.054Z,13.26
2022-12-31T10:20:02.517Z,13.30
2022-12-31T10:22:28.933Z,13.42
2022-12-31T10:24:55.391Z,13.46
2022-12-31T10:27:21.852Z,13.50
2022-12-31T10:29:48.313Z,13.58
2022-12-31T10:32:18.372Z,13.55
2022-12-31T10:34:44.764Z,13.61
2022-12-31T10:37:11.128Z,13.65
2022-12-31T10:39:37.574Z,13.71
2022-12-31T10:42:04.058Z,13.77
2022-12-31T10:44:30.491Z,13.79
2022-12-31T10:46:56.975Z,13.77
2022-12-31T10:49:23.327Z,13.83
2022-12-31T10:51:49.856Z,13.86
2022-12-31T10:54:16.327Z,13.87
2022-12-31T10:56:42.752Z,13.87
2022-12-31T10:59:09.243Z,13.98
2022-12-31T11:01:35.756Z,14.00
2022-12-31T11:04:05.398Z,14.04
2022-12-31T11:06:31.861Z,14.11
2022-12-31T11:08:59.366Z,14.12
2022-12-31T11:11:25.836Z,14.09
2022-12-31T11:13:52.373Z,13.99
2022-12-31T11:16:18.881Z,13.97
2022-12-31T11:18:45.472Z,14.07
2022-12-31T11:21:11.959Z,14.14
2022-12-31T11:23:50.235Z,14.08
2022-12-31T11:26:16.808Z,14.17
2022-12-31T11:28:43.253Z,14.16
2022-12-31T11:31:09.749Z,14.12
2022-12-31T11:33:36.207Z,14.27
2022-12-31T11:36:02.657Z,14.23
2022-12-31T11:38:29.170Z,14.32
2022-12-31T11:40:55.602Z,14.20
2022-12-31T11:43:22.052Z,14.21
2022-12-31T11:45:50.689Z,14.22
2022-12-31T11:48:30.320Z,14.26
2022-12-31T11:50:57.659Z,14.28
2022-12-31T11:53:24.128Z,14.29
2022-12-31T11:55:50.635Z,14.39
2022-12-31T11:58:17.119Z,14.54
2022-12-31T12:00:43.656Z,14.65
2022-12-31T12:03:10.158Z,14.68
2022-12-31T12:05:50.262Z,14.65
2022-12-31T12:08:16.818Z,14.63
2022-12-31T12:10:43.308Z,14.66
2022-12-31T12:13:09.788Z,14.77
2022-12-31T12:15:36.188Z,14.79
2022-12-31T12:18:02.988Z,14.84
2022-12-31T12:20:29.848Z,14.88
2022-12-31T12:22:56.436Z,14.90
2022-12-31T12:25:22.937Z,14.95
2022-12-31T12:27:50.717Z,14.95
2022-12-31T12:30:17.152Z,14.94
2022-12-31T12:32:43.626Z,14.93
2022-12-31T12:35:10.092Z,14.91
2022-12-31T12:37:36.565Z,14.91
2022-12-31T12:40:03.027Z,14.87
2022-12-31T12:42:29.458Z,14.85
2022-12-31T12:44:58.583Z,14.84
2022-12-31T12:47:25.061Z,14.82
2022-12-31T12:49:51.506Z,14.85
2022-12-31T12:52:17.948Z,14.88
2022-12-31T12:54:44.386Z,14.86
2022-12-31T12:57:10.853Z,14.87
2022-12-31T12:59:37.293Z,14.93
2022-12-31T13:02:03.841Z,14.91
2022-12-31T13:04:35.180Z,14.95
2022-12-31T13:07:07.374Z,15.00
2022-12-31T13:09:33.760Z,14.99
2022-12-31T13:12:07.140Z,14.93
2022-12-31T13:14:34.112Z,14.77
2022-12-31T13:17:01.599Z,14.84
2022-12-31T13:22:08.431Z,14.91
2022-12-31T13:24:34.932Z,14.97
2022-12-31T13:27:01.434Z,15.11
2022-12-31T13:29:28.135Z,15.27
2022-12-31T13:31:54.745Z,15.21
2022-12-31T13:34:21.107Z,15.37
2022-12-31T13:36:52.557Z,15.37
2022-12-31T13:39:18.969Z,15.46
2022-12-31T13:41:48.431Z,15.49
2022-12-31T13:44:14.851Z,15.48
2022-12-31T13:46:41.283Z,15.47
2022-12-31T13:49:07.927Z,15.52
2022-12-31T13:51:36.668Z,15.64
2022-12-31T13:54:03.115Z,15.67
2022-12-31T13:56:29.469Z,15.71
2022-12-31T13:58:56.283Z,15.63
2022-12-31T14:01:23.107Z,15.69
2022-12-31T14:03:49.683Z,15.67
2022-12-31T14:06:16.303Z,15.64
2022-12-31T14:08:42.942Z,15.58
2022-12-31T14:11:09.734Z,15.49
2022-12-31T14:13:36.311Z,15.43
2022-12-31T14:16:02.765Z,15.37
2022-12-31T14:21:19.395Z,15.38
2022-12-31T14:23:45.803Z,15.31
2022-12-31T14:26:12.183Z,15.31
2022-12-31T14:28:44.704Z,15.30
2022-12-31T14:31:13.122Z,15.19
2022-12-31T14:33:39.513Z,15.11
2022-12-31T14:36:10.426Z,15.07
2022-12-31T14:38:37.245Z,15.00
2022-12-31T14:41:03.641Z,15.01
2022-12-31T14:43:30.037Z,15.05
2022-12-31T14:45:56.431Z,15.08
2022-12-31T14:48:22.931Z,15.03
2022-12-31T14:50:49.388Z,15.02
2022-12-31T14:53:24.750Z,15.02
2022-12-31T14:55:51.124Z,15.02
2022-12-31T14:58:27.551Z,15.01
2022-12-31T15:00:54.616Z,15.01
2022-12-31T15:03:21.170Z,14.95
2022-12-31T15:05:47.729Z,14.97
2022-12-31T15:08:14.230Z,14.95
2022-12-31T15:10:40.817Z,14.93
2022-12-31T15:13:07.179Z,14.92
2022-12-31T15:15:33.798Z,14.94
2022-12-31T15:18:00.214Z,14.93
2022-12-31T15:20:26.579Z,14.93
2022-12-31T15:22:54.005Z,14.98
2022-12-31T15:25:39.991Z,14.97
2022-12-31T15:28:09.698Z,14.86
2022-12-31T15:30:36.711Z,14.85
2022-12-31T15:33:03.205Z,14.84
2022-12-31T15:35:30.142Z,14.85
2022-12-31T15:37:56.532Z,14.79
2022-12-31T15:40:23.033Z,14.73
2022-12-31T15:42:53.606Z,14.75
2022-12-31T15:45:21.126Z,14.71
2022-12-31T15:47:49.754Z,14.70
2022-12-31T15:50:16.134Z,14.71
2022-12-31T15:52:44.773Z,14.72
2022-12-31T15:55:11.186Z,14.63
2022-12-31T16:00:18.086Z,14.54
2022-12-31T16:02:44.587Z,14.51
2022-12-31T16:05:11.047Z,14.53
2022-12-31T16:07:39.225Z,14.51
2022-12-31T16:10:06.435Z,14.47
2022-12-31T16:12:35.199Z,14.47
2022-12-31T16:15:04.764Z,14.43
2022-12-31T16:17:33.955Z,14.37
2022-12-31T16:20:00.436Z,14.42
2022-12-31T16:22:32.135Z,14.43
2022-12-31T16:30:35.361Z,14.46
2022-12-31T16:33:06.603Z,14.44
2022-12-31T16:35:36.184Z,14.40
2022-12-31T16:38:02.574Z,14.36
2022-12-31T16:40:28.926Z,14.41
2022-12-31T16:42:55.382Z,14.49
2022-12-31T16:45:22.375Z,14.50
2022-12-31T16:47:48.882Z,14.38
2022-12-31T16:50:15.356Z,14.28
2022-12-31T16:52:41.803Z,14.25
2022-12-31T16:55:09.254Z,14.13
2022-12-31T16:57:35.658Z,14.09
2022-12-31T17:00:02.053Z,14.05
2022-12-31T17:02:28.593Z,14.08
2022-12-31T17:04:56.392Z,14.15
2022-12-31T17:07:22.927Z,14.18
2022-12-31T17:09:49.270Z,14.25
2022-12-31T17:12:27.149Z,14.12
2022-12-31T17:14:53.613Z,14.07
2022-12-31T17:17:20.122Z,14.01
2022-12-31T17:19:46.598Z,13.96
2022-12-31T17:22:13.231Z,14.02
2022-12-31T17:24:39.721Z,14.10
2022-12-31T17:27:06.231Z,14.08
2022-12-31T17:29:32.627Z,13.99
2022-12-31T17:31:59.019Z,14.02
2022-12-31T17:34:25.408Z,14.02
2022-12-31T17:36:53.040Z,13.98
2022-12-31T17:39:19.465Z,14.00
2022-12-31T17:41:45.841Z,13.96
2022-12-31T17:44:12.280Z,14.01
2022-12-31T17:46:38.784Z,13.89
2022-12-31T17:49:05.237Z,13.76
2022-12-31T17:51:31.638Z,13.71
2022-12-31T17:53:58.009Z,13.77
2022-12-31T17:56:24.462Z,13.87
2022-12-31T17:58:50.944Z,14.07
2022-12-31T18:01:17.531Z,14.16
2022-12-31T18:03:44.011Z,14.38
2022-12-31T18:06:16.305Z,14.53
2022-12-31T18:08:43.355Z,14.61
2022-12-31T18:11:09.859Z,14.52
2022-12-31T18:13:36.322Z,14.76
2022-12-31T18:16:02.833Z,14.80
2022-12-31T18:18:29.204Z,14.77
2022-12-31T18:20:55.653Z,14.68
2022-12-31T18:23:22.119Z,14.62
2022-12-31T18:25:48.545Z,14.57
2022-12-31T18:28:15.009Z,14.53
2022-12-31T18:30:42.261Z,14.44
2022-12-31T18:33:08.778Z,14.37
2022-12-31T18:36:08.227Z,14.44
2022-12-31T18:38:21.450Z,14.38
2022-12-31T18:40:47.816Z,14.35
2022-12-31T18:43:14.192Z,14.35
2022-12-31T18:48:23.863Z,14.31
2022-12-31T18:50:55.068Z,14.32
2022-12-31T18:53:21.508Z,14.30
2022-12-31T18:55:47.969Z,14.23
2022-12-31T18:58:14.431Z,14.17
2022-12-31T19:00:41.165Z,14.11
2022-12-31T19:03:07.667Z,14.07
2022-12-31T19:05:35.340Z,13.93
2022-12-31T19:08:01.766Z,13.94
2022-12-31T19:10:28.241Z,13.92
2022-12-31T19:12:57.430Z,13.87
2022-12-31T19:15:24.060Z,13.87
2022-12-31T19:17:50.485Z,13.92
2022-12-31T19:20:16.946Z,13.91
2022-12-31T19:22:43.550Z,13.87
2022-12-31T19:25:16.233Z,13.86
2022-12-31T19:27:44.890Z,13.85
2022-12-31T19:32:52.737Z,13.92
2022-12-31T19:35:22.033Z,13.97
2022-12-31T19:37:48.616Z,14.00
2022-12-31T19:40:15.095Z,13.99
2022-12-31T19:42:41.535Z,14.00
2022-12-31T19:45:08.191Z,14.04
2022-12-31T19:47:34.595Z,14.09
2022-12-31T19:50:01.122Z,14.09
2022-12-31T19:52:27.583Z,14.10
2022-12-31T19:54:54.120Z,14.17
2022-12-31T19:57:20.540Z,14.16
2022-12-31T19:59:47.021Z,14.10
2022-12-31T20:02:13.557Z,14.14
2022-12-31T20:04:40.217Z,14.16
2022-12-31T20:07:09.341Z,14.14
2022-12-31T20:09:38.597Z,14.09
2022-12-31T20:12:05.037Z,14.11
2022-12-31T20:14:31.459Z,14.16
2022-12-31T20:16:57.878Z,14.21
2022-12-31T20:19:24.597Z,14.24
2022-12-31T20:21:51.353Z,14.24
2022-12-31T20:24:17.755Z,14.22
2022-12-31T20:26:44.180Z,14.20
2022-12-31T20:29:10.629Z,14.24
2022-12-31T20:31:37.103Z,14.28
2022-12-31T20:34:03.590Z,14.26
2022-12-31T20:36:40.632Z,14.26
2022-12-31T20:39:07.099Z,14.30
2022-12-31T20:41:34.221Z,14.32
2022-12-31T20:44:00.712Z,14.29
2022-12-31T20:46:27.293Z,14.29
2022-12-31T20:48:53.771Z,14.25
2022-12-31T20:51:21.355Z,14.31
2022-12-31T20:53:47.815Z,14.34
2022-12-31T20:56:15.932Z,14.33
2022-12-31T20:58:48.412Z,14.26
2022-12-31T21:01:17.477Z,14.22
2022-12-31T21:06:30.558Z,14.03
2022-12-31T21:08:57.133Z,13.92
2022-12-31T21:11:23.899Z,13.79
2022-12-31T21:13:50.326Z,13.74
2022-12-31T21:16:16.729Z,13.75
2022-12-31T21:18:43.240Z,13.77
2022-12-31T21:21:09.698Z,13.82
2022-12-31T21:26:16.389Z,13.89
2022-12-31T21:28:42.926Z,13.83
2022-12-31T21:31:11.501Z,13.75
2022-12-31T21:33:37.981Z,13.75
2022-12-31T21:36:05.063Z,13.75
2022-12-31T21:38:31.690Z,13.73
2022-12-31T21:40:58.088Z,13.75
2022-12-31T21:43:24.477Z,13.76
2022-12-31T21:45:50.919Z,13.81
2022-12-31T21:48:17.330Z,13.81
2022-12-31T21:50:43.719Z,13.84
2022-12-31T21:53:10.197Z,13.85
2022-12-31T21:55:42.581Z,13.75
2022-12-31T21:58:25.743Z,13.75
2022-12-31T22:00:52.810Z,13.71
2022-12-31T22:03:19.298Z,13.69
2022-12-31T22:05:45.769Z,13.70
2022-12-31T22:08:12.185Z,13.69
2022-12-31T22:10:44.671Z,13.72
2022-12-31T22:13:17.507Z,13.65
2022-12-31T22:15:44.058Z,13.66
2022-12-31T22:18:10.489Z,13.63
2022-12-31T22:20:36.998Z,13.66
2022-12-31T22:23:07.114Z,13.68
2022-12-31T22:25:33.572Z,13.72
2022-12-31T22:28:37.064Z,13.72
2022-12-31T22:30:52.415Z,13.74
2022-12-31T22:33:19.899Z,13.72
2022-12-31T22:35:46.401Z,13.74
2022-12-31T22:38:12.899Z,13.75
2022-12-31T22:40:39.403Z,13.72
2022-12-31T22:43:07.506Z,13.70
2022-12-31T22:45:43.059Z,13.73
2022-12-31T22:48:09.761Z,13.71
2022-12-31T22:50:38.975Z,13.74
2022-12-31T22:53:08.671Z,13.79
2022-12-31T22:55:35.035Z,13.81
2022-12-31T22:58:01.440Z,13.77
2022-12-31T23:03:08.336Z,13.77
2022-12-31T23:05:35.956Z,13.86
2022-12-31T23:08:06.148Z,13.89
2022-12-31T23:10:46.640Z,13.90
2022-12-31T23:13:13.047Z,13.94
2022-12-31T23:15:39.486Z,13.95
2022-12-31T23:18:05.897Z,13.95
2022-12-31T23:20:32.272Z,13.91
2022-12-31T23:22:58.661Z,13.91
2022-12-31T23:25:25.009Z,13.87
2022-12-31T23:27:51.392Z,13.91
2022-12-31T23:30:17.804Z,13.86
2022-12-31T23:35:34.863Z,13.93
2022-12-31T23:43:33.321Z,13.69
2022-12-31T23:45:59.811Z,13.69
2022-12-31T23:48:26.144Z,13.71
2022-12-31T23:50:54.432Z,13.65
2022-12-31T23:53:20.924Z,13.67
2022-12-31T23:55:50.334Z,13.67
2022-12-31T23:58:16.804Z,13.60
